sensor_id;sensor_type;location;lat;lon;timestamp;P1;durP1;ratioP1;P2;durP2;ratioP2
52978;SDS011;51106;53.186;6.598;2022-08-25T00:00:53;16.13;;;12.75;;
52978;SDS011;51106;53.186;6.598;2022-08-25T00:02:55;12.10;;;10.90;;
52978;SDS011;51106;53.186;6.598;2022-08-25T00:04:58;11.98;;;10.40;;
52978;SDS011;51106;53.186;6.598;2022-08-25T00:07:03;12.38;;;10.88;;
52978;SDS011;51106;53.186;6.598;2022-08-25T00:09:06;12.82;;;9.85;;
52978;SDS011;51106;53.186;6.598;2022-08-25T00:11:16;10.32;;;9.32;;
52978;SDS011;51106;53.186;6.598;2022-08-25T00:13:21;9.98;;;8.98;;
52978;SDS011;51106;53.186;6.598;2022-08-25T00:15:26;9.60;;;8.60;;
52978;SDS011;51106;53.186;6.598;2022-08-25T00:17:29;8.95;;;7.50;;
52978;SDS011;51106;53.186;6.598;2022-08-25T00:19:33;10.05;;;8.48;;
52978;SDS011;51106;53.186;6.598;2022-08-25T00:21:36;9.63;;;7.72;;
52978;SDS011;51106;53.186;6.598;2022-08-25T00:23:40;9.35;;;6.95;;
52978;SDS011;51106;53.186;6.598;2022-08-25T00:25:44;11.68;;;7.32;;
52978;SDS011;51106;53.186;6.598;2022-08-25T00:27:46;8.73;;;7.15;;
52978;SDS011;51106;53.186;6.598;2022-08-25T00:29:49;7.07;;;6.20;;
52978;SDS011;51106;53.186;6.598;2022-08-25T00:31:51;8.70;;;5.90;;
52978;SDS011;51106;53.186;6.598;2022-08-25T00:33:57;8.50;;;6.50;;
52978;SDS011;51106;53.186;6.598;2022-08-25T00:35:59;9.23;;;5.95;;
52978;SDS011;51106;53.186;6.598;2022-08-25T00:38:01;8.93;;;5.95;;
52978;SDS011;51106;53.186;6.598;2022-08-25T00:40:04;8.68;;;5.63;;
52978;SDS011;51106;53.186;6.598;2022-08-25T00:42:07;9.73;;;5.75;;
52978;SDS011;51106;53.186;6.598;2022-08-25T00:44:16;8.60;;;6.03;;
52978;SDS011;51106;53.186;6.598;2022-08-25T00:46:22;8.32;;;5.65;;
52978;SDS011;51106;53.186;6.598;2022-08-25T00:48:29;6.95;;;5.25;;
52978;SDS011;51106;53.186;6.598;2022-08-25T00:50:32;9.13;;;5.63;;
52978;SDS011;51106;53.186;6.598;2022-08-25T00:52:44;8.05;;;5.78;;
52978;SDS011;51106;53.186;6.598;2022-08-25T00:54:52;8.75;;;4.70;;
52978;SDS011;51106;53.186;6.598;2022-08-25T00:56:57;6.85;;;4.93;;
52978;SDS011;51106;53.186;6.598;2022-08-25T00:59:00;10.15;;;5.95;;
52978;SDS011;51106;53.186;6.598;2022-08-25T01:01:04;6.05;;;4.90;;
52978;SDS011;51106;53.186;6.598;2022-08-25T01:03:08;11.95;;;5.32;;
52978;SDS011;51106;53.186;6.598;2022-08-25T01:05:11;7.27;;;4.40;;
52978;SDS011;51106;53.186;6.598;2022-08-25T01:07:15;7.50;;;5.30;;
52978;SDS011;51106;53.186;6.598;2022-08-25T01:09:19;7.25;;;5.30;;
52978;SDS011;51106;53.186;6.598;2022-08-25T01:11:23;6.57;;;5.28;;
52978;SDS011;51106;53.186;6.598;2022-08-25T01:13:29;8.70;;;4.95;;
52978;SDS011;51106;53.186;6.598;2022-08-25T01:15:35;6.13;;;4.70;;
52978;SDS011;51106;53.186;6.598;2022-08-25T01:17:45;10.20;;;5.35;;
52978;SDS011;51106;53.186;6.598;2022-08-25T01:19:49;9.50;;;5.05;;
52978;SDS011;51106;53.186;6.598;2022-08-25T01:21:52;7.80;;;5.25;;
52978;SDS011;51106;53.186;6.598;2022-08-25T01:23:55;9.85;;;5.57;;
52978;SDS011;51106;53.186;6.598;2022-08-25T01:26:33;7.47;;;5.07;;
52978;SDS011;51106;53.186;6.598;2022-08-25T01:28:32;10.75;;;5.45;;
52978;SDS011;51106;53.186;6.598;2022-08-25T01:30:37;9.65;;;5.10;;
52978;SDS011;51106;53.186;6.598;2022-08-25T01:32:40;15.40;;;5.25;;
52978;SDS011;51106;53.186;6.598;2022-08-25T01:34:43;8.65;;;5.05;;
52978;SDS011;51106;53.186;6.598;2022-08-25T01:36:45;8.02;;;5.50;;
52978;SDS011;51106;53.186;6.598;2022-08-25T01:38:48;8.30;;;4.97;;
52978;SDS011;51106;53.186;6.598;2022-08-25T01:40:50;9.07;;;5.07;;
52978;SDS011;51106;53.186;6.598;2022-08-25T01:43:54;6.07;;;5.10;;
52978;SDS011;51106;53.186;6.598;2022-08-25T01:45:32;8.52;;;5.85;;
52978;SDS011;51106;53.186;6.598;2022-08-25T01:47:36;8.68;;;5.70;;
52978;SDS011;51106;53.186;6.598;2022-08-25T01:49:39;11.35;;;5.07;;
52978;SDS011;51106;53.186;6.598;2022-08-25T01:51:42;7.97;;;5.13;;
52978;SDS011;51106;53.186;6.598;2022-08-25T01:53:48;11.00;;;4.88;;
52978;SDS011;51106;53.186;6.598;2022-08-25T01:55:51;8.60;;;5.30;;
52978;SDS011;51106;53.186;6.598;2022-08-25T01:57:55;6.45;;;4.72;;
52978;SDS011;51106;53.186;6.598;2022-08-25T01:59:59;7.70;;;4.45;;
52978;SDS011;51106;53.186;6.598;2022-08-25T02:02:04;7.15;;;5.05;;
52978;SDS011;51106;53.186;6.598;2022-08-25T02:04:07;6.93;;;4.80;;
52978;SDS011;51106;53.186;6.598;2022-08-25T02:06:21;6.25;;;4.95;;
52978;SDS011;51106;53.186;6.598;2022-08-25T02:08:30;5.88;;;5.28;;
52978;SDS011;51106;53.186;6.598;2022-08-25T02:10:33;9.88;;;5.03;;
52978;SDS011;51106;53.186;6.598;2022-08-25T02:12:35;7.53;;;5.30;;
52978;SDS011;51106;53.186;6.598;2022-08-25T02:14:38;8.55;;;5.15;;
52978;SDS011;51106;53.186;6.598;2022-08-25T02:16:44;9.93;;;5.63;;
52978;SDS011;51106;53.186;6.598;2022-08-25T02:18:48;7.43;;;4.80;;
52978;SDS011;51106;53.186;6.598;2022-08-25T02:20:51;7.85;;;5.10;;
52978;SDS011;51106;53.186;6.598;2022-08-25T02:22:53;8.02;;;4.88;;
52978;SDS011;51106;53.186;6.598;2022-08-25T02:27:00;6.97;;;4.75;;
52978;SDS011;51106;53.186;6.598;2022-08-25T02:31:07;9.82;;;5.82;;
52978;SDS011;51106;53.186;6.598;2022-08-25T02:33:10;9.07;;;5.22;;
52978;SDS011;51106;53.186;6.598;2022-08-25T02:35:12;8.18;;;5.00;;
52978;SDS011;51106;53.186;6.598;2022-08-25T02:37:14;7.65;;;5.15;;
52978;SDS011;51106;53.186;6.598;2022-08-25T02:39:16;9.02;;;5.65;;
52978;SDS011;51106;53.186;6.598;2022-08-25T02:41:19;8.25;;;5.38;;
52978;SDS011;51106;53.186;6.598;2022-08-25T02:43:32;9.43;;;5.33;;
52978;SDS011;51106;53.186;6.598;2022-08-25T02:45:34;10.95;;;5.40;;
52978;SDS011;51106;53.186;6.598;2022-08-25T02:47:37;9.48;;;5.55;;
52978;SDS011;51106;53.186;6.598;2022-08-25T02:49:39;6.60;;;4.55;;
52978;SDS011;51106;53.186;6.598;2022-08-25T02:51:42;11.17;;;5.40;;
52978;SDS011;51106;53.186;6.598;2022-08-25T02:53:44;8.52;;;4.97;;
52978;SDS011;51106;53.186;6.598;2022-08-25T02:55:47;9.17;;;4.87;;
52978;SDS011;51106;53.186;6.598;2022-08-25T02:57:49;7.18;;;4.80;;
52978;SDS011;51106;53.186;6.598;2022-08-25T02:59:51;9.60;;;5.40;;
52978;SDS011;51106;53.186;6.598;2022-08-25T03:01:54;11.43;;;5.22;;
52978;SDS011;51106;53.186;6.598;2022-08-25T03:03:57;8.57;;;5.43;;
52978;SDS011;51106;53.186;6.598;2022-08-25T03:05:59;6.35;;;4.78;;
52978;SDS011;51106;53.186;6.598;2022-08-25T03:08:03;6.68;;;4.72;;
52978;SDS011;51106;53.186;6.598;2022-08-25T03:10:08;8.95;;;4.95;;
52978;SDS011;51106;53.186;6.598;2022-08-25T03:12:15;10.55;;;5.22;;
52978;SDS011;51106;53.186;6.598;2022-08-25T03:14:17;10.27;;;5.32;;
52978;SDS011;51106;53.186;6.598;2022-08-25T03:16:19;9.40;;;4.93;;
52978;SDS011;51106;53.186;6.598;2022-08-25T03:18:21;10.55;;;5.05;;
52978;SDS011;51106;53.186;6.598;2022-08-25T03:20:25;9.70;;;5.45;;
52978;SDS011;51106;53.186;6.598;2022-08-25T03:22:28;7.55;;;5.18;;
52978;SDS011;51106;53.186;6.598;2022-08-25T03:24:30;6.28;;;4.70;;
52978;SDS011;51106;53.186;6.598;2022-08-25T03:26:33;9.38;;;4.88;;
52978;SDS011;51106;53.186;6.598;2022-08-25T03:28:53;8.85;;;4.55;;
52978;SDS011;51106;53.186;6.598;2022-08-25T03:30:56;8.68;;;5.07;;
52978;SDS011;51106;53.186;6.598;2022-08-25T03:33:01;10.35;;;5.35;;
52978;SDS011;51106;53.186;6.598;2022-08-25T03:35:03;6.10;;;4.78;;
52978;SDS011;51106;53.186;6.598;2022-08-25T03:37:06;9.18;;;4.97;;
52978;SDS011;51106;53.186;6.598;2022-08-25T03:39:08;10.73;;;4.82;;
52978;SDS011;51106;53.186;6.598;2022-08-25T03:41:21;10.00;;;4.72;;
52978;SDS011;51106;53.186;6.598;2022-08-25T03:43:29;8.90;;;5.13;;
52978;SDS011;51106;53.186;6.598;2022-08-25T03:45:32;10.25;;;5.22;;
52978;SDS011;51106;53.186;6.598;2022-08-25T03:47:34;9.40;;;5.50;;
52978;SDS011;51106;53.186;6.598;2022-08-25T03:49:36;10.60;;;4.97;;
52978;SDS011;51106;53.186;6.598;2022-08-25T03:51:39;7.68;;;5.10;;
52978;SDS011;51106;53.186;6.598;2022-08-25T03:53:43;7.15;;;4.50;;
52978;SDS011;51106;53.186;6.598;2022-08-25T03:55:46;14.02;;;5.90;;
52978;SDS011;51106;53.186;6.598;2022-08-25T03:57:48;7.47;;;5.15;;
52978;SDS011;51106;53.186;6.598;2022-08-25T03:59:51;6.10;;;4.75;;
52978;SDS011;51106;53.186;6.598;2022-08-25T04:01:53;8.88;;;5.00;;
52978;SDS011;51106;53.186;6.598;2022-08-25T04:03:56;8.95;;;5.07;;
52978;SDS011;51106;53.186;6.598;2022-08-25T04:06:02;6.53;;;4.82;;
52978;SDS011;51106;53.186;6.598;2022-08-25T04:08:05;7.22;;;5.38;;
52978;SDS011;51106;53.186;6.598;2022-08-25T04:10:09;7.57;;;5.00;;
52978;SDS011;51106;53.186;6.598;2022-08-25T04:12:12;9.57;;;5.30;;
52978;SDS011;51106;53.186;6.598;2022-08-25T04:14:15;11.30;;;4.95;;
52978;SDS011;51106;53.186;6.598;2022-08-25T04:16:21;6.68;;;4.38;;
52978;SDS011;51106;53.186;6.598;2022-08-25T04:18:28;11.15;;;5.55;;
52978;SDS011;51106;53.186;6.598;2022-08-25T04:20:31;10.10;;;5.32;;
52978;SDS011;51106;53.186;6.598;2022-08-25T04:22:33;14.93;;;5.40;;
52978;SDS011;51106;53.186;6.598;2022-08-25T04:26:41;9.00;;;5.53;;
52978;SDS011;51106;53.186;6.598;2022-08-25T04:28:48;8.52;;;5.20;;
52978;SDS011;51106;53.186;6.598;2022-08-25T04:30:50;9.85;;;5.95;;
52978;SDS011;51106;53.186;6.598;2022-08-25T04:32:52;15.32;;;6.63;;
52978;SDS011;51106;53.186;6.598;2022-08-25T04:34:55;13.70;;;7.43;;
52978;SDS011;51106;53.186;6.598;2022-08-25T04:36:58;15.40;;;8.00;;
52978;SDS011;51106;53.186;6.598;2022-08-25T04:39:02;13.35;;;7.63;;
52978;SDS011;51106;53.186;6.598;2022-08-25T04:41:05;16.13;;;7.55;;
52978;SDS011;51106;53.186;6.598;2022-08-25T04:43:08;17.50;;;8.70;;
52978;SDS011;51106;53.186;6.598;2022-08-25T04:45:10;21.73;;;8.63;;
52978;SDS011;51106;53.186;6.598;2022-08-25T04:47:12;17.27;;;9.98;;
52978;SDS011;51106;53.186;6.598;2022-08-25T04:49:14;23.17;;;11.38;;
52978;SDS011;51106;53.186;6.598;2022-08-25T04:51:21;20.95;;;10.40;;
52978;SDS011;51106;53.186;6.598;2022-08-25T04:53:25;18.55;;;10.48;;
52978;SDS011;51106;53.186;6.598;2022-08-25T04:55:27;18.10;;;9.55;;
52978;SDS011;51106;53.186;6.598;2022-08-25T04:57:29;23.13;;;12.60;;
52978;SDS011;51106;53.186;6.598;2022-08-25T04:59:31;20.83;;;11.25;;
52978;SDS011;51106;53.186;6.598;2022-08-25T05:01:34;20.00;;;12.63;;
52978;SDS011;51106;53.186;6.598;2022-08-25T05:03:37;19.95;;;13.27;;
52978;SDS011;51106;53.186;6.598;2022-08-25T05:05:39;24.17;;;12.95;;
52978;SDS011;51106;53.186;6.598;2022-08-25T05:07:41;20.95;;;12.27;;
52978;SDS011;51106;53.186;6.598;2022-08-25T05:09:43;19.95;;;11.70;;
52978;SDS011;51106;53.186;6.598;2022-08-25T05:11:45;22.35;;;10.90;;
52978;SDS011;51106;53.186;6.598;2022-08-25T05:13:48;16.15;;;10.65;;
52978;SDS011;51106;53.186;6.598;2022-08-25T05:15:55;14.38;;;9.32;;
52978;SDS011;51106;53.186;6.598;2022-08-25T05:18:00;14.50;;;10.38;;
52978;SDS011;51106;53.186;6.598;2022-08-25T05:20:03;12.88;;;9.50;;
52978;SDS011;51106;53.186;6.598;2022-08-25T05:22:05;16.83;;;9.00;;
52978;SDS011;51106;53.186;6.598;2022-08-25T05:24:07;15.80;;;9.50;;
52978;SDS011;51106;53.186;6.598;2022-08-25T05:26:10;14.55;;;9.18;;
52978;SDS011;51106;53.186;6.598;2022-08-25T05:28:22;17.60;;;9.18;;
52978;SDS011;51106;53.186;6.598;2022-08-25T05:30:24;14.05;;;8.15;;
52978;SDS011;51106;53.186;6.598;2022-08-25T05:32:26;10.93;;;8.27;;
52978;SDS011;51106;53.186;6.598;2022-08-25T05:34:31;12.13;;;8.45;;
52978;SDS011;51106;53.186;6.598;2022-08-25T05:36:34;16.75;;;9.80;;
52978;SDS011;51106;53.186;6.598;2022-08-25T05:38:37;13.00;;;8.63;;
52978;SDS011;51106;53.186;6.598;2022-08-25T05:40:41;14.52;;;8.15;;
52978;SDS011;51106;53.186;6.598;2022-08-25T05:42:43;12.45;;;8.02;;
52978;SDS011;51106;53.186;6.598;2022-08-25T05:44:45;16.85;;;9.13;;
52978;SDS011;51106;53.186;6.598;2022-08-25T05:46:47;14.32;;;8.30;;
52978;SDS011;51106;53.186;6.598;2022-08-25T05:48:50;11.32;;;7.45;;
52978;SDS011;51106;53.186;6.598;2022-08-25T05:50:54;16.60;;;9.02;;
52978;SDS011;51106;53.186;6.598;2022-08-25T05:52:58;15.88;;;9.13;;
52978;SDS011;51106;53.186;6.598;2022-08-25T05:55:00;11.00;;;7.70;;
52978;SDS011;51106;53.186;6.598;2022-08-25T05:57:02;18.42;;;9.38;;
52978;SDS011;51106;53.186;6.598;2022-08-25T05:59:04;11.73;;;8.68;;
52978;SDS011;51106;53.186;6.598;2022-08-25T06:01:17;13.80;;;9.85;;
52978;SDS011;51106;53.186;6.598;2022-08-25T06:03:45;14.63;;;9.50;;
52978;SDS011;51106;53.186;6.598;2022-08-25T06:05:48;10.40;;;8.05;;
52978;SDS011;51106;53.186;6.598;2022-08-25T06:07:50;14.73;;;8.20;;
52978;SDS011;51106;53.186;6.598;2022-08-25T06:09:53;16.00;;;8.73;;
52978;SDS011;51106;53.186;6.598;2022-08-25T06:11:55;17.88;;;9.70;;
52978;SDS011;51106;53.186;6.598;2022-08-25T06:13:57;13.65;;;10.27;;
52978;SDS011;51106;53.186;6.598;2022-08-25T06:15:59;14.00;;;10.52;;
52978;SDS011;51106;53.186;6.598;2022-08-25T06:18:02;15.20;;;10.23;;
52978;SDS011;51106;53.186;6.598;2022-08-25T06:20:04;16.17;;;11.20;;
52978;SDS011;51106;53.186;6.598;2022-08-25T06:22:07;17.95;;;11.88;;
52978;SDS011;51106;53.186;6.598;2022-08-25T06:24:09;17.33;;;10.35;;
52978;SDS011;51106;53.186;6.598;2022-08-25T06:26:15;14.60;;;10.57;;
52978;SDS011;51106;53.186;6.598;2022-08-25T06:28:21;15.00;;;10.48;;
52978;SDS011;51106;53.186;6.598;2022-08-25T06:30:27;15.23;;;9.45;;
52978;SDS011;51106;53.186;6.598;2022-08-25T06:32:33;20.63;;;11.07;;
52978;SDS011;51106;53.186;6.598;2022-08-25T06:34:37;16.05;;;10.15;;
52978;SDS011;51106;53.186;6.598;2022-08-25T06:36:40;14.02;;;10.50;;
52978;SDS011;51106;53.186;6.598;2022-08-25T06:38:42;14.23;;;9.85;;
52978;SDS011;51106;53.186;6.598;2022-08-25T06:40:46;16.20;;;9.25;;
52978;SDS011;51106;53.186;6.598;2022-08-25T06:42:49;16.50;;;9.18;;
52978;SDS011;51106;53.186;6.598;2022-08-25T06:44:54;14.90;;;9.77;;
52978;SDS011;51106;53.186;6.598;2022-08-25T06:46:56;12.05;;;9.25;;
52978;SDS011;51106;53.186;6.598;2022-08-25T06:48:58;13.65;;;8.93;;
52978;SDS011;51106;53.186;6.598;2022-08-25T06:51:04;14.68;;;9.15;;
52978;SDS011;51106;53.186;6.598;2022-08-25T06:53:14;11.25;;;8.27;;
52978;SDS011;51106;53.186;6.598;2022-08-25T06:55:16;13.00;;;8.50;;
52978;SDS011;51106;53.186;6.598;2022-08-25T06:57:19;13.38;;;8.38;;
52978;SDS011;51106;53.186;6.598;2022-08-25T06:59:21;16.80;;;8.13;;
52978;SDS011;51106;53.186;6.598;2022-08-25T07:01:23;12.05;;;7.85;;
52978;SDS011;51106;53.186;6.598;2022-08-25T07:03:28;11.40;;;7.75;;
52978;SDS011;51106;53.186;6.598;2022-08-25T07:05:30;13.02;;;8.30;;
52978;SDS011;51106;53.186;6.598;2022-08-25T07:09:46;12.68;;;7.93;;
52978;SDS011;51106;53.186;6.598;2022-08-25T07:11:48;11.48;;;7.20;;
52978;SDS011;51106;53.186;6.598;2022-08-25T07:13:50;13.73;;;8.15;;
52978;SDS011;51106;53.186;6.598;2022-08-25T07:15:53;12.57;;;8.30;;
52978;SDS011;51106;53.186;6.598;2022-08-25T07:17:56;11.33;;;8.03;;
52978;SDS011;51106;53.186;6.598;2022-08-25T07:19:58;16.70;;;8.60;;
52978;SDS011;51106;53.186;6.598;2022-08-25T07:22:00;13.50;;;8.05;;
52978;SDS011;51106;53.186;6.598;2022-08-25T07:24:04;19.67;;;8.52;;
52978;SDS011;51106;53.186;6.598;2022-08-25T07:26:11;10.43;;;8.13;;
52978;SDS011;51106;53.186;6.598;2022-08-25T07:28:39;11.98;;;8.45;;
52978;SDS011;51106;53.186;6.598;2022-08-25T07:30:48;11.57;;;6.93;;
52978;SDS011;51106;53.186;6.598;2022-08-25T07:32:52;13.05;;;7.70;;
52978;SDS011;51106;53.186;6.598;2022-08-25T07:34:55;11.02;;;7.50;;
52978;SDS011;51106;53.186;6.598;2022-08-25T07:37:20;10.35;;;8.13;;
52978;SDS011;51106;53.186;6.598;2022-08-25T07:39:43;11.02;;;7.25;;
52978;SDS011;51106;53.186;6.598;2022-08-25T07:41:45;10.48;;;6.57;;
52978;SDS011;51106;53.186;6.598;2022-08-25T07:43:52;12.73;;;7.18;;
52978;SDS011;51106;53.186;6.598;2022-08-25T07:45:54;9.75;;;6.93;;
52978;SDS011;51106;53.186;6.598;2022-08-25T07:47:57;10.50;;;6.65;;
52978;SDS011;51106;53.186;6.598;2022-08-25T07:50:01;10.18;;;6.43;;
52978;SDS011;51106;53.186;6.598;2022-08-25T07:52:06;8.07;;;6.07;;
52978;SDS011;51106;53.186;6.598;2022-08-25T07:54:09;12.10;;;5.57;;
52978;SDS011;51106;53.186;6.598;2022-08-25T07:56:13;9.05;;;5.63;;
52978;SDS011;51106;53.186;6.598;2022-08-25T07:58:16;8.05;;;5.00;;
52978;SDS011;51106;53.186;6.598;2022-08-25T08:00:18;8.88;;;5.47;;
52978;SDS011;51106;53.186;6.598;2022-08-25T08:02:21;8.18;;;5.63;;
52978;SDS011;51106;53.186;6.598;2022-08-25T08:04:25;7.13;;;5.50;;
52978;SDS011;51106;53.186;6.598;2022-08-25T08:06:28;13.63;;;5.65;;
52978;SDS011;51106;53.186;6.598;2022-08-25T08:08:30;9.88;;;5.25;;
52978;SDS011;51106;53.186;6.598;2022-08-25T08:10:32;8.73;;;5.47;;
52978;SDS011;51106;53.186;6.598;2022-08-25T08:12:55;11.18;;;5.75;;
52978;SDS011;51106;53.186;6.598;2022-08-25T08:14:59;9.95;;;5.50;;
52978;SDS011;51106;53.186;6.598;2022-08-25T08:17:08;7.68;;;4.90;;
52978;SDS011;51106;53.186;6.598;2022-08-25T08:19:11;10.68;;;5.55;;
52978;SDS011;51106;53.186;6.598;2022-08-25T08:21:24;6.78;;;4.75;;
52978;SDS011;51106;53.186;6.598;2022-08-25T08:23:30;7.95;;;5.32;;
52978;SDS011;51106;53.186;6.598;2022-08-25T08:25:32;9.57;;;5.80;;
52978;SDS011;51106;53.186;6.598;2022-08-25T08:27:34;8.88;;;5.28;;
52978;SDS011;51106;53.186;6.598;2022-08-25T08:29:37;11.95;;;6.10;;
52978;SDS011;51106;53.186;6.598;2022-08-25T08:31:41;8.57;;;5.45;;
52978;SDS011;51106;53.186;6.598;2022-08-25T08:33:51;6.47;;;5.07;;
52978;SDS011;51106;53.186;6.598;2022-08-25T08:36:06;8.90;;;4.93;;
52978;SDS011;51106;53.186;6.598;2022-08-25T08:38:10;5.68;;;5.07;;
52978;SDS011;51106;53.186;6.598;2022-08-25T08:40:21;8.38;;;4.95;;
52978;SDS011;51106;53.186;6.598;2022-08-25T08:47:19;7.20;;;5.57;;
52978;SDS011;51106;53.186;6.598;2022-08-25T08:52:00;9.55;;;5.35;;
52978;SDS011;51106;53.186;6.598;2022-08-25T08:54:05;6.70;;;5.25;;
52978;SDS011;51106;53.186;6.598;2022-08-25T08:56:19;9.63;;;5.13;;
52978;SDS011;51106;53.186;6.598;2022-08-25T08:58:38;8.32;;;4.78;;
52978;SDS011;51106;53.186;6.598;2022-08-25T09:00:43;9.55;;;5.68;;
52978;SDS011;51106;53.186;6.598;2022-08-25T09:03:04;6.57;;;4.72;;
52978;SDS011;51106;53.186;6.598;2022-08-25T09:05:10;9.45;;;5.20;;
52978;SDS011;51106;53.186;6.598;2022-08-25T09:07:16;7.97;;;4.75;;
52978;SDS011;51106;53.186;6.598;2022-08-25T09:09:24;8.23;;;4.88;;
52978;SDS011;51106;53.186;6.598;2022-08-25T09:16:08;8.18;;;5.03;;
52978;SDS011;51106;53.186;6.598;2022-08-25T09:30:59;9.38;;;4.45;;
52978;SDS011;51106;53.186;6.598;2022-08-25T09:33:04;7.22;;;4.38;;
52978;SDS011;51106;53.186;6.598;2022-08-25T09:35:11;9.27;;;4.25;;
52978;SDS011;51106;53.186;6.598;2022-08-25T09:37:22;6.47;;;4.13;;
52978;SDS011;51106;53.186;6.598;2022-08-25T09:39:26;8.02;;;4.25;;
52978;SDS011;51106;53.186;6.598;2022-08-25T09:43:52;8.52;;;4.85;;
52978;SDS011;51106;53.186;6.598;2022-08-25T09:48:19;7.30;;;4.40;;
52978;SDS011;51106;53.186;6.598;2022-08-25T09:50:22;6.32;;;4.00;;
52978;SDS011;51106;53.186;6.598;2022-08-25T09:54:33;10.25;;;3.95;;
52978;SDS011;51106;53.186;6.598;2022-08-25T10:01:35;10.80;;;3.75;;
52978;SDS011;51106;53.186;6.598;2022-08-25T10:06:02;9.60;;;4.28;;
52978;SDS011;51106;53.186;6.598;2022-08-25T10:08:29;6.47;;;3.75;;
52978;SDS011;51106;53.186;6.598;2022-08-25T10:10:44;9.85;;;3.80;;
52978;SDS011;51106;53.186;6.598;2022-08-25T10:12:53;5.50;;;3.80;;
52978;SDS011;51106;53.186;6.598;2022-08-25T10:14:58;6.22;;;3.50;;
52978;SDS011;51106;53.186;6.598;2022-08-25T10:17:23;8.10;;;3.97;;
52978;SDS011;51106;53.186;6.598;2022-08-25T10:19:30;5.70;;;3.72;;
52978;SDS011;51106;53.186;6.598;2022-08-25T10:21:32;6.03;;;3.72;;
52978;SDS011;51106;53.186;6.598;2022-08-25T10:23:39;4.93;;;3.58;;
52978;SDS011;51106;53.186;6.598;2022-08-25T10:25:47;7.97;;;3.80;;
52978;SDS011;51106;53.186;6.598;2022-08-25T10:30:27;7.82;;;3.92;;
52978;SDS011;51106;53.186;6.598;2022-08-25T10:34:48;7.90;;;3.58;;
52978;SDS011;51106;53.186;6.598;2022-08-25T10:39:24;9.50;;;4.10;;
52978;SDS011;51106;53.186;6.598;2022-08-25T10:42:02;5.35;;;3.53;;
52978;SDS011;51106;53.186;6.598;2022-08-25T10:47:10;7.93;;;3.47;;
52978;SDS011;51106;53.186;6.598;2022-08-25T10:49:29;6.78;;;3.35;;
52978;SDS011;51106;53.186;6.598;2022-08-25T10:51:48;8.88;;;3.45;;
52978;SDS011;51106;53.186;6.598;2022-08-25T10:58:48;5.93;;;3.33;;
52978;SDS011;51106;53.186;6.598;2022-08-25T11:01:06;7.22;;;3.63;;
52978;SDS011;51106;53.186;6.598;2022-08-25T11:03:23;5.22;;;3.40;;
52978;SDS011;51106;53.186;6.598;2022-08-25T11:05:46;4.65;;;3.67;;
52978;SDS011;51106;53.186;6.598;2022-08-25T11:08:02;6.72;;;3.75;;
52978;SDS011;51106;53.186;6.598;2022-08-25T11:10:46;4.68;;;3.50;;
52978;SDS011;51106;53.186;6.598;2022-08-25T11:12:54;6.63;;;3.65;;
52978;SDS011;51106;53.186;6.598;2022-08-25T11:14:59;5.95;;;3.45;;
52978;SDS011;51106;53.186;6.598;2022-08-25T11:19:34;5.75;;;3.47;;
52978;SDS011;51106;53.186;6.598;2022-08-25T11:23:54;8.15;;;4.07;;
52978;SDS011;51106;53.186;6.598;2022-08-25T11:26:06;4.93;;;3.90;;
52978;SDS011;51106;53.186;6.598;2022-08-25T11:30:31;5.35;;;3.60;;
52978;SDS011;51106;53.186;6.598;2022-08-25T11:32:35;9.65;;;3.28;;
52978;SDS011;51106;53.186;6.598;2022-08-25T11:34:38;5.05;;;3.55;;
52978;SDS011;51106;53.186;6.598;2022-08-25T11:39:02;5.50;;;3.13;;
52978;SDS011;51106;53.186;6.598;2022-08-25T11:41:21;10.73;;;3.45;;
52978;SDS011;51106;53.186;6.598;2022-08-25T11:44:46;6.85;;;3.20;;
52978;SDS011;51106;53.186;6.598;2022-08-25T11:46:43;7.15;;;3.90;;
52978;SDS011;51106;53.186;6.598;2022-08-25T11:51:07;5.57;;;3.50;;
52978;SDS011;51106;53.186;6.598;2022-08-25T11:53:18;7.57;;;3.38;;
52978;SDS011;51106;53.186;6.598;2022-08-25T11:57:49;7.20;;;3.38;;
52978;SDS011;51106;53.186;6.598;2022-08-25T12:02:07;6.43;;;3.38;;
52978;SDS011;51106;53.186;6.598;2022-08-25T12:04:40;8.25;;;3.42;;
52978;SDS011;51106;53.186;6.598;2022-08-25T12:07:14;7.50;;;3.83;;
52978;SDS011;51106;53.186;6.598;2022-08-25T12:11:41;5.55;;;3.25;;
52978;SDS011;51106;53.186;6.598;2022-08-25T12:13:45;4.93;;;3.53;;
52978;SDS011;51106;53.186;6.598;2022-08-25T12:21:07;5.65;;;3.40;;
52978;SDS011;51106;53.186;6.598;2022-08-25T12:23:07;5.18;;;3.30;;
52978;SDS011;51106;53.186;6.598;2022-08-25T12:25:15;3.92;;;3.20;;
52978;SDS011;51106;53.186;6.598;2022-08-25T12:27:42;4.15;;;2.85;;
52978;SDS011;51106;53.186;6.598;2022-08-25T12:37:14;6.63;;;3.72;;
52978;SDS011;51106;53.186;6.598;2022-08-25T12:39:28;10.55;;;3.78;;
52978;SDS011;51106;53.186;6.598;2022-08-25T12:41:33;4.63;;;3.30;;
52978;SDS011;51106;53.186;6.598;2022-08-25T12:43:37;3.63;;;3.00;;
52978;SDS011;51106;53.186;6.598;2022-08-25T12:45:44;4.22;;;3.28;;
52978;SDS011;51106;53.186;6.598;2022-08-25T12:47:48;4.43;;;3.50;;
52978;SDS011;51106;53.186;6.598;2022-08-25T12:49:51;5.20;;;3.50;;
52978;SDS011;51106;53.186;6.598;2022-08-25T12:51:57;5.82;;;3.53;;
52978;SDS011;51106;53.186;6.598;2022-08-25T12:56:43;6.68;;;3.47;;
52978;SDS011;51106;53.186;6.598;2022-08-25T13:06:58;4.65;;;3.08;;
52978;SDS011;51106;53.186;6.598;2022-08-25T13:12:17;6.38;;;3.20;;
52978;SDS011;51106;53.186;6.598;2022-08-25T13:14:40;6.18;;;3.05;;
52978;SDS011;51106;53.186;6.598;2022-08-25T13:16:54;5.93;;;3.03;;
52978;SDS011;51106;53.186;6.598;2022-08-25T13:18:58;4.63;;;3.03;;
52978;SDS011;51106;53.186;6.598;2022-08-25T13:21:10;6.72;;;3.15;;
52978;SDS011;51106;53.186;6.598;2022-08-25T13:23:21;7.72;;;3.20;;
52978;SDS011;51106;53.186;6.598;2022-08-25T13:25:29;3.97;;;3.10;;
52978;SDS011;51106;53.186;6.598;2022-08-25T13:27:34;4.50;;;3.20;;
52978;SDS011;51106;53.186;6.598;2022-08-25T13:29:48;6.30;;;3.05;;
52978;SDS011;51106;53.186;6.598;2022-08-25T13:31:57;5.68;;;3.78;;
52978;SDS011;51106;53.186;6.598;2022-08-25T13:34:03;5.40;;;3.35;;
52978;SDS011;51106;53.186;6.598;2022-08-25T13:36:14;4.50;;;3.13;;
52978;SDS011;51106;53.186;6.598;2022-08-25T13:38:36;4.15;;;2.92;;
52978;SDS011;51106;53.186;6.598;2022-08-25T13:40:39;4.55;;;3.20;;
52978;SDS011;51106;53.186;6.598;2022-08-25T13:42:47;6.07;;;3.50;;
52978;SDS011;51106;53.186;6.598;2022-08-25T13:44:57;9.90;;;3.40;;
52978;SDS011;51106;53.186;6.598;2022-08-25T13:47:31;5.63;;;3.28;;
52978;SDS011;51106;53.186;6.598;2022-08-25T13:49:46;7.68;;;3.30;;
52978;SDS011;51106;53.186;6.598;2022-08-25T13:51:49;5.95;;;3.17;;
52978;SDS011;51106;53.186;6.598;2022-08-25T13:53:55;3.00;;;2.67;;
52978;SDS011;51106;53.186;6.598;2022-08-25T13:56:01;8.20;;;3.28;;
52978;SDS011;51106;53.186;6.598;2022-08-25T14:00:24;5.75;;;2.90;;
52978;SDS011;51106;53.186;6.598;2022-08-25T14:04:50;4.25;;;3.00;;
52978;SDS011;51106;53.186;6.598;2022-08-25T14:09:20;5.28;;;3.10;;
52978;SDS011;51106;53.186;6.598;2022-08-25T14:11:54;3.67;;;2.97;;
52978;SDS011;51106;53.186;6.598;2022-08-25T14:16:06;6.60;;;3.40;;
52978;SDS011;51106;53.186;6.598;2022-08-25T14:18:19;5.32;;;3.17;;
52978;SDS011;51106;53.186;6.598;2022-08-25T14:20:28;4.22;;;3.50;;
52978;SDS011;51106;53.186;6.598;2022-08-25T14:22:31;3.63;;;3.30;;
52978;SDS011;51106;53.186;6.598;2022-08-25T14:24:34;6.38;;;3.47;;
52978;SDS011;51106;53.186;6.598;2022-08-25T14:26:41;5.70;;;3.63;;
52978;SDS011;51106;53.186;6.598;2022-08-25T14:28:55;4.57;;;3.20;;
52978;SDS011;51106;53.186;6.598;2022-08-25T14:31:01;5.60;;;3.75;;
52978;SDS011;51106;53.186;6.598;2022-08-25T14:33:09;5.88;;;3.88;;